This is the latest recevied weather packets stored in our database for station/object DH0DM-13. If no packets are shown the sender has not sent any weather packets the latest 10 day(s).
| Time | Temp. | Humidity | Pressure | Rain* | Wind** | Luminosity | Snow |
|---|---|---|---|---|---|---|---|
| 1777514510 | -2.22° C | 82% | 1005 hPa | 0 mm | 0 m/s | - | - |
| 1777513909 | -1.67° C | 81% | 1004.9 hPa | 0 mm | 0 m/s | - | - |
| 1777513309 | -1.67° C | 81% | 1004.9 hPa | 0 mm | 0 m/s | - | - |
| 1777512708 | -1.67° C | 80% | 1004.8 hPa | 0 mm | 0 m/s | - | - |
| 1777512107 | -1.67° C | 79% | 1004.6 hPa | 0 mm | 0 m/s | - | - |
| 1777511506 | -1.67° C | 78% | 1004.4 hPa | 0 mm | 0 m/s | - | - |
| 1777510905 | -1.67° C | 79% | 1004.6 hPa | 0 mm | 0 m/s | - | - |
| 1777510304 | -1.11° C | 78% | 1004.5 hPa | 0 mm | 0 m/s | - | - |
| 1777509703 | -0.56° C | 76% | 1004.4 hPa | 0 mm | 0 m/s | - | - |
| 1777509102 | -0.56° C | 73% | 1004.4 hPa | 0 mm | 0 m/s | - | - |
| 1777508501 | 0° C | 74% | 1004.3 hPa | 0 mm | 0 m/s | - | - |
| 1777507900 | 0° C | 74% | 1004.4 hPa | 0 mm | 1.34 m/s, 115° | - | - |
| 1777507299 | 0° C | 73% | 1004.4 hPa | 0 mm | 1.79 m/s, 120° | - | - |
| 1777506699 | 0° C | 74% | 1004.3 hPa | 0 mm | 2.24 m/s, 122° | - | - |
| 1777506098 | 0° C | 75% | 1004.4 hPa | 0 mm | 0.89 m/s, 119° | - | - |
| 1777505497 | 0° C | 75% | 1004.4 hPa | 0 mm | 4.92 m/s, 110° | - | - |
| 1777504896 | 0° C | 75% | 1004.6 hPa | 0 mm | 2.68 m/s, 120° | - | - |
| 1777504295 | 0° C | 76% | 1004.5 hPa | 0 mm | 2.24 m/s, 129° | - | - |
| 1777503694 | -0.56° C | 76% | 1004.7 hPa | 0 mm | 0 m/s | - | - |
| 1777503093 | 0° C | 75% | 1004.6 hPa | 0 mm | 0 m/s | - | - |
| 1777502492 | 0° C | 75% | 1004.3 hPa | 0 mm | 0.45 m/s, 146° | - | - |
| 1777501891 | 0° C | 75% | 1004.4 hPa | 0 mm | 0 m/s | - | - |
| 1777501290 | 0° C | 75% | 1004.5 hPa | 0 mm | 0 m/s | - | - |
| 1777500690 | 0.56° C | 75% | 1004.4 hPa | 0 mm | 0 m/s | - | - |
| 1777500089 | 0.56° C | 73% | 1004.5 hPa | 0 mm | 0 m/s | - | - |
* Rain since midnight (hover to see other rain measurements)
** Current wind speed in m/s (hover to see current wind gust speed)